Terminal Aerodrome Forecast
Issued by NWS Tuscon, AZ

Home | Current Version | Previous Version | Text Only | Print | Product List | Glossary On
Versions: 1 2 3 4 5 6 7 8 9 10 11 12
634
FTUS45 KTWC 201139
TAFDUG
TAF
KDUG 201139Z 2012/2112 19008KT P6SM SCT050 BKN080
     FM201800 21016G26KT P6SM VCSH OVC050
     FM210200 19022G32KT P6SM -SHRA OVC030=

USA.gov is the U.S. government's official web portal to all federal, state and local government web resources and services.